createdAt,value
2023-05-18T00:00:16.164Z,102924.63
2023-05-18T00:00:47.759Z,102921.94
2023-05-18T00:01:19.600Z,102918.72
2023-05-18T00:01:54.037Z,102923.34
2023-05-18T00:02:26.528Z,102921.72
2023-05-18T00:02:58.511Z,102918.50
2023-05-18T00:03:30.379Z,102915.78
2023-05-18T00:04:02.396Z,102927.75
2023-05-18T00:04:35.524Z,102923.44
2023-05-18T00:05:10.450Z,102924.53
2023-05-18T00:05:42.861Z,102920.22
2023-05-18T00:06:14.373Z,102925.63
2023-05-18T00:06:46.497Z,102924.03
2023-05-18T00:07:18.250Z,102921.63
2023-05-18T00:07:49.688Z,102920.84
2023-05-18T00:08:21.240Z,102927.84
2023-05-18T00:08:53.227Z,102920.84
2023-05-18T00:09:25.859Z,102922.25
2023-05-18T00:09:57.291Z,102916.03
2023-05-18T00:10:29.593Z,102914.41
2023-05-18T00:11:02.349Z,102918.22
2023-05-18T00:11:34.778Z,102926.06
2023-05-18T00:12:07.457Z,102921.75
2023-05-18T00:12:39.441Z,102922.84
2023-05-18T00:13:12.478Z,102917.72
2023-05-18T00:13:44.288Z,102916.91
2023-05-18T00:14:15.746Z,102921.53
2023-05-18T00:14:47.411Z,102915.31
2023-05-18T00:15:19.108Z,102922.66
2023-05-18T00:15:50.938Z,102918.81
2023-05-18T00:16:22.518Z,102918.81
2023-05-18T00:16:54.677Z,102922.66
2023-05-18T00:17:28.500Z,102918.81
2023-05-18T00:18:00.044Z,102923.75
2023-05-18T00:18:31.895Z,102922.66
2023-05-18T00:19:03.417Z,102926.47
2023-05-18T00:19:34.957Z,102922.94
2023-05-18T00:20:06.706Z,102921.34
2023-05-18T00:20:38.148Z,102917.00
2023-05-18T00:21:10.174Z,102923.84
2023-05-18T00:21:42.748Z,102917.63
2023-05-18T00:22:20.317Z,102924.66
2023-05-18T00:22:53.132Z,102922.22
2023-05-18T00:23:35.668Z,102922.22
2023-05-18T00:24:07.960Z,102921.44
2023-05-18T00:24:39.436Z,102919.00
2023-05-18T00:25:11.042Z,102919.00
2023-05-18T00:25:42.639Z,102921.72
2023-05-18T00:26:15.109Z,102917.44
2023-05-18T00:26:48.198Z,102922.88
2023-05-18T00:27:21.378Z,102917.44
2023-05-18T00:27:52.968Z,102923.97
2023-05-18T00:28:25.333Z,102921.25
2023-05-18T00:28:56.861Z,102932.09
2023-05-18T00:29:29.155Z,102921.56
2023-05-18T00:30:01.015Z,102937.03
2023-05-18T00:30:32.421Z,102927.28
2023-05-18T00:31:03.996Z,102931.88
2023-05-18T00:31:36.763Z,102928.69
2023-05-18T00:32:08.386Z,102930.88
2023-05-18T00:32:39.908Z,102931.69
2023-05-18T00:33:11.593Z,102931.19
2023-05-18T00:33:45.182Z,102926.06
2023-05-18T00:34:19.079Z,102931.47
2023-05-18T00:34:50.629Z,102927.16
2023-05-18T00:35:22.219Z,102929.06
2023-05-18T00:35:53.780Z,102929.34
2023-05-18T00:36:28.075Z,102924.75
2023-05-18T00:36:59.566Z,102926.66
2023-05-18T00:37:34.217Z,102935.88
2023-05-18T00:38:05.956Z,102932.06
2023-05-18T00:38:37.376Z,102928.56
2023-05-18T00:39:09.642Z,102930.47
2023-05-18T00:39:41.109Z,102933.97
2023-05-18T00:40:12.931Z,102931.25
2023-05-18T00:40:44.785Z,102930.47
2023-05-18T00:41:16.281Z,102933.97
2023-05-18T00:41:47.956Z,102932.88
2023-05-18T00:42:19.411Z,102931.25
2023-05-18T00:42:50.996Z,102932.38
2023-05-18T00:43:22.508Z,102928.84
2023-05-18T00:43:54.854Z,102931.88
2023-05-18T00:44:26.587Z,102934.56
2023-05-18T00:44:58.026Z,102931.06
2023-05-18T00:45:29.790Z,102934.09
2023-05-18T00:46:01.598Z,102929.47
2023-05-18T00:46:35.646Z,102934.41
2023-05-18T00:47:10.599Z,102941.72
2023-05-18T00:47:42.334Z,102939.31
2023-05-18T00:48:14.091Z,102935.78
2023-05-18T00:48:46.332Z,102934.47
2023-05-18T00:49:18.349Z,102937.19
2023-05-18T00:49:49.985Z,102938.59
2023-05-18T00:50:22.672Z,102935.38
2023-05-18T00:50:54.197Z,102938.09
2023-05-18T00:51:26.162Z,102929.16
2023-05-18T00:51:58.125Z,102936.47
2023-05-18T00:52:29.770Z,102935.66
2023-05-18T00:53:01.398Z,102935.66
2023-05-18T00:53:33.594Z,102931.63
2023-05-18T00:54:06.296Z,102937.06
2023-05-18T00:54:37.948Z,102930.84
2023-05-18T00:55:12.571Z,102930.84
2023-05-18T00:55:44.472Z,102930.03
2023-05-18T00:56:16.042Z,102938.16
2023-05-18T00:56:48.340Z,102934.66
2023-05-18T00:57:20.254Z,102938.47
2023-05-18T00:57:51.923Z,102928.41
2023-05-18T00:58:23.421Z,102933.03
2023-05-18T00:58:57.124Z,102926.03
2023-05-18T00:59:29.944Z,102933.38
2023-05-18T01:00:02.523Z,102936.06
2023-05-18T01:00:38.290Z,102927.13
2023-05-18T01:01:09.905Z,102936.38
2023-05-18T01:01:45.024Z,102938.28
2023-05-18T01:02:18.064Z,102930.16
2023-05-18T01:02:51.358Z,102932.84
2023-05-18T01:03:24.759Z,102941.00
2023-05-18T01:03:58.165Z,102937.47
2023-05-18T01:04:33.405Z,102931.25
2023-05-18T01:05:05.262Z,102933.97
2023-05-18T01:05:36.995Z,102935.06
2023-05-18T01:06:10.362Z,102933.44
2023-05-18T01:06:42.750Z,102933.44
2023-05-18T01:07:16.565Z,102929.13
2023-05-18T01:07:50.984Z,102937.25
2023-05-18T01:08:23.855Z,102926.41
2023-05-18T01:08:55.661Z,102935.66
2023-05-18T01:09:27.206Z,102933.22
2023-05-18T01:09:59.305Z,102927.00
2023-05-18T01:10:33.815Z,102930.81
2023-05-18T01:11:18.939Z,102932.72
2023-05-18T01:12:06.011Z,102937.34
2023-05-18T01:13:01.166Z,102936.84
2023-05-18T01:13:43.240Z,102939.03
2023-05-18T01:14:33.237Z,102935.81
2023-05-18T01:15:15.995Z,102931.53
2023-05-18T01:15:54.453Z,102929.91
2023-05-18T01:16:37.235Z,102937.22
2023-05-18T01:17:33.575Z,102932.63
2023-05-18T01:18:15.219Z,102929.91
2023-05-18T01:19:14.082Z,102928.31
2023-05-18T01:19:51.373Z,102930.19
2023-05-18T01:20:37.729Z,102931.31
2023-05-18T01:21:43.146Z,102931.31
2023-05-18T01:22:38.677Z,102937.00
2023-05-18T01:23:29.858Z,102929.69
2023-05-18T01:24:26.187Z,102931.88
2023-05-18T01:25:10.475Z,102937.00
2023-05-18T01:25:54.813Z,102931.09
2023-05-18T01:26:37.354Z,102930.28
2023-05-18T01:27:09.324Z,102932.19
2023-05-18T01:27:46.285Z,102933.00
2023-05-18T01:28:21.975Z,102937.59
2023-05-18T01:28:54.363Z,102933.00
2023-05-18T01:29:29.215Z,102933.00
2023-05-18T01:30:00.788Z,102928.38
2023-05-18T01:30:40.061Z,102932.19
2023-05-18T01:31:15.216Z,102933.28
2023-05-18T01:31:46.731Z,102934.38
2023-05-18T01:32:22.172Z,102933.59
2023-05-18T01:32:54.500Z,102934.38
2023-05-18T01:33:26.086Z,102939.00
2023-05-18T01:33:57.497Z,102937.09
2023-05-18T01:34:31.163Z,102932.78
2023-05-18T01:35:02.631Z,102933.06
2023-05-18T01:35:34.311Z,102940.09
2023-05-18T01:36:06.037Z,102930.34
2023-05-18T01:36:37.733Z,102936.59
2023-05-18T01:37:09.378Z,102941.50
2023-05-18T01:37:41.002Z,102934.47
2023-05-18T01:38:12.837Z,102931.25
2023-05-18T01:38:45.425Z,102932.84
2023-05-18T01:39:16.890Z,102929.34
2023-05-18T01:39:48.356Z,102935.06
2023-05-18T01:40:19.910Z,102929.94
2023-05-18T01:40:57.719Z,102935.06
2023-05-18T01:41:30.777Z,102942.38
2023-05-18T01:42:12.675Z,102941.59
2023-05-18T01:42:51.640Z,102941.88
2023-05-18T01:43:30.481Z,102944.31
2023-05-18T01:44:12.429Z,102937.28
2023-05-18T01:44:51.242Z,102934.84
2023-05-18T01:45:29.181Z,102944.59
2023-05-18T01:46:08.936Z,102941.38
2023-05-18T01:46:52.564Z,102940.56
2023-05-18T01:47:29.323Z,102938.66
2023-05-18T01:48:02.575Z,102939.75
2023-05-18T01:48:37.914Z,102938.66
2023-05-18T01:49:42.110Z,102944.09
2023-05-18T01:50:17.005Z,102935.44
2023-05-18T01:50:49.710Z,102940.06
2023-05-18T01:51:22.767Z,102938.44
2023-05-18T01:51:57.273Z,102939.25
2023-05-18T01:52:39.724Z,102948.47
2023-05-18T01:53:27.885Z,102938.44
2023-05-18T01:54:06.551Z,102939.53
2023-05-18T01:54:43.432Z,102942.53
2023-05-18T01:55:17.904Z,102941.75
2023-05-18T01:55:51.300Z,102934.72
2023-05-18T01:56:24.459Z,102938.22
2023-05-18T01:56:56.801Z,102939.31
2023-05-18T01:57:31.331Z,102937.72
2023-05-18T01:58:06.675Z,102939.63
2023-05-18T01:58:39.379Z,102946.66
2023-05-18T01:59:12.161Z,102939.63
2023-05-18T01:59:43.951Z,102943.41
2023-05-18T02:00:18.714Z,102940.72
2023-05-18T02:00:50.517Z,102939.09
2023-05-18T02:01:23.877Z,102943.19
2023-05-18T02:02:00.428Z,102942.09
2023-05-18T02:02:32.283Z,102935.06
2023-05-18T02:03:03.922Z,102942.41
2023-05-18T02:03:35.500Z,102938.09
2023-05-18T02:04:10.534Z,102943.53
2023-05-18T02:04:42.202Z,102942.72
2023-05-18T02:05:14.049Z,102942.72
2023-05-18T02:05:45.467Z,102941.91
2023-05-18T02:06:17.256Z,102936.50
2023-05-18T02:06:48.737Z,102942.19
2023-05-18T02:07:20.219Z,102940.31
2023-05-18T02:07:51.991Z,102940.31
2023-05-18T02:08:23.420Z,102933.28
2023-05-18T02:08:55.310Z,102944.09
2023-05-18T02:09:26.813Z,102937.38
2023-05-18T02:09:58.277Z,102938.19
2023-05-18T02:10:29.738Z,102931.97
2023-05-18T02:11:01.306Z,102939.28
2023-05-18T02:11:32.721Z,102938.47
2023-05-18T02:12:04.512Z,102943.88
2023-05-18T02:12:36.333Z,102938.47
2023-05-18T02:13:07.863Z,102936.84
2023-05-18T02:13:39.322Z,102937.94
2023-05-18T02:14:10.970Z,102934.41
2023-05-18T02:14:42.499Z,102932.81
2023-05-18T02:15:13.916Z,102939.03
2023-05-18T02:15:45.386Z,102935.50
2023-05-18T02:16:17.215Z,102932.81
2023-05-18T02:16:52.766Z,102930.09
2023-05-18T02:17:26.235Z,102930.09
2023-05-18T02:17:58.637Z,102938.22
2023-05-18T02:18:30.140Z,102936.31
2023-05-18T02:19:01.615Z,102936.03
2023-05-18T02:19:34.007Z,102937.13
2023-05-18T02:20:09.997Z,102939.03
2023-05-18T02:20:41.860Z,102943.63
2023-05-18T02:21:13.762Z,102935.78
2023-05-18T02:21:45.714Z,102936.09
2023-05-18T02:22:17.273Z,102939.09
2023-05-18T02:22:48.687Z,102942.59
2023-05-18T02:23:20.160Z,102935.28
2023-05-18T02:23:51.691Z,102942.59
2023-05-18T02:24:24.834Z,102939.59
2023-05-18T02:24:56.879Z,102933.69
2023-05-18T02:25:28.468Z,102940.19
2023-05-18T02:26:00.026Z,102941.78
2023-05-18T02:26:31.793Z,102939.09
2023-05-18T02:27:03.375Z,102939.09
2023-05-18T02:27:36.007Z,102942.09
2023-05-18T02:28:07.438Z,102938.56
2023-05-18T02:28:40.320Z,102940.47
2023-05-18T02:29:12.115Z,102940.47
2023-05-18T02:29:43.602Z,102944.00
2023-05-18T02:30:16.093Z,102945.09
2023-05-18T02:30:48.022Z,102938.88
2023-05-18T02:31:19.519Z,102943.19
2023-05-18T02:31:51.244Z,102938.06
2023-05-18T02:32:23.333Z,102931.06
2023-05-18T02:32:55.131Z,102935.66
2023-05-18T02:33:26.746Z,102932.44
2023-05-18T02:33:58.580Z,102936.53
2023-05-18T02:34:32.933Z,102933.84
2023-05-18T02:35:08.558Z,102936.53
2023-05-18T02:35:41.340Z,102938.44
2023-05-18T02:36:14.483Z,102935.75
2023-05-18T02:36:46.061Z,102933.03
2023-05-18T02:37:17.519Z,102935.75
2023-05-18T02:37:50.001Z,102937.63
2023-05-18T02:38:21.772Z,102936.03
2023-05-18T02:38:53.450Z,102934.13
2023-05-18T02:39:24.976Z,102932.50
2023-05-18T02:39:56.476Z,102932.22
2023-05-18T02:40:28.885Z,102928.72
2023-05-18T02:41:00.460Z,102933.03
2023-05-18T02:41:32.665Z,102929.53
2023-05-18T02:42:04.397Z,102934.94
2023-05-18T02:42:35.847Z,102935.75
2023-05-18T02:43:07.298Z,102928.72
2023-05-18T02:43:38.706Z,102926.00
2023-05-18T02:44:12.244Z,102936.53
2023-05-18T02:44:43.875Z,102933.56
2023-05-18T02:45:15.507Z,102936.53
2023-05-18T02:45:47.162Z,102935.75
2023-05-18T02:46:18.669Z,102930.31
2023-05-18T02:46:50.175Z,102927.09
2023-05-18T02:47:21.595Z,102931.41
2023-05-18T02:47:53.122Z,102927.09
2023-05-18T02:48:24.665Z,102937.13
2023-05-18T02:48:56.467Z,102922.78
2023-05-18T02:49:28.337Z,102931.72
2023-05-18T02:50:02.156Z,102924.69
2023-05-18T02:50:33.632Z,102930.91
2023-05-18T02:51:05.195Z,102923.88
2023-05-18T02:51:36.839Z,102929.28
2023-05-18T02:52:08.264Z,102931.50
2023-05-18T02:52:39.729Z,102926.38
2023-05-18T02:53:11.238Z,102929.88
2023-05-18T02:53:45.580Z,102925.56
2023-05-18T02:54:19.633Z,102925.84
2023-05-18T02:54:51.237Z,102928.84
2023-05-18T02:55:22.715Z,102928.84
2023-05-18T02:55:58.680Z,102925.66
2023-05-18T02:56:30.126Z,102926.44
2023-05-18T02:57:01.690Z,102930.25
2023-05-18T02:57:33.906Z,102926.75
2023-05-18T02:58:05.346Z,102933.78
2023-05-18T02:58:36.961Z,102933.25
2023-05-18T02:59:09.052Z,102934.88
2023-05-18T02:59:41.144Z,102930.25
2023-05-18T03:00:17.075Z,102932.97
2023-05-18T03:00:49.095Z,102928.34
2023-05-18T03:01:21.789Z,102936.47
2023-05-18T03:01:53.270Z,102935.66
2023-05-18T03:02:24.834Z,102932.97
2023-05-18T03:02:57.793Z,102930.25
2023-05-18T03:03:30.113Z,102935.66
2023-05-18T03:04:01.605Z,102929.13
2023-05-18T03:04:33.613Z,102935.34
2023-05-18T03:05:05.909Z,102926.44
2023-05-18T03:05:37.632Z,102934.06
2023-05-18T03:06:11.280Z,102934.88
2023-05-18T03:06:42.761Z,102934.88
2023-05-18T03:07:16.341Z,102935.97
2023-05-18T03:07:51.867Z,102933.25
2023-05-18T03:08:25.749Z,102931.66
2023-05-18T03:08:57.555Z,102930.03
2023-05-18T03:09:31.905Z,102931.13
2023-05-18T03:10:06.657Z,102933.03
2023-05-18T03:10:38.253Z,102931.13
2023-05-18T03:11:09.715Z,102927.63
2023-05-18T03:11:41.376Z,102927.63
2023-05-18T03:12:13.835Z,102930.31
2023-05-18T03:12:45.985Z,102929.53
2023-05-18T03:13:18.965Z,102932.22
2023-05-18T03:13:53.669Z,102927.91
2023-05-18T03:14:25.261Z,102927.91
2023-05-18T03:14:56.742Z,102936.81
2023-05-18T03:15:38.614Z,102931.41
2023-05-18T03:16:11.241Z,102939.53
2023-05-18T03:16:46.357Z,102928.72
2023-05-18T03:17:17.904Z,102927.91
2023-05-18T03:17:49.688Z,102934.41
2023-05-18T03:18:21.260Z,102934.41
2023-05-18T03:18:53.029Z,102936.31
2023-05-18T03:19:24.794Z,102937.91
2023-05-18T03:19:56.500Z,102939.03
2023-05-18T03:20:29.860Z,102938.22
2023-05-18T03:21:02.177Z,102940.91
2023-05-18T03:21:36.440Z,102938.22
2023-05-18T03:22:08.021Z,102938.22
2023-05-18T03:22:39.942Z,102936.31
2023-05-18T03:23:11.517Z,102939.81
2023-05-18T03:23:44.505Z,102937.41
2023-05-18T03:24:17.186Z,102938.22
2023-05-18T03:24:51.450Z,102942.81
2023-05-18T03:25:25.837Z,102938.50
2023-05-18T03:25:58.770Z,102942.00
2023-05-18T03:26:33.167Z,102942.31
2023-05-18T03:27:05.182Z,102937.69
2023-05-18T03:27:38.015Z,102938.78
2023-05-18T03:28:09.519Z,102939.59
2023-05-18T03:28:40.965Z,102941.50
2023-05-18T03:29:14.075Z,102939.88
2023-05-18T03:29:45.765Z,102940.69
2023-05-18T03:30:19.788Z,102936.38
2023-05-18T03:30:51.384Z,102938.56
2023-05-18T03:31:23.291Z,102942.34
2023-05-18T03:31:54.798Z,102938.56
2023-05-18T03:32:28.259Z,102936.13
2023-05-18T03:33:03.153Z,102945.06
2023-05-18T03:33:34.653Z,102936.13
2023-05-18T03:34:06.392Z,102938.03
2023-05-18T03:34:38.817Z,102944.53
2023-05-18T03:35:10.310Z,102935.94
2023-05-18T03:35:41.747Z,102940.53
2023-05-18T03:36:13.544Z,102931.63
2023-05-18T03:36:47.285Z,102932.44
2023-05-18T03:37:18.794Z,102938.66
2023-05-18T03:37:50.435Z,102936.22
2023-05-18T03:38:22.038Z,102933.53
2023-05-18T03:38:53.794Z,102935.13
2023-05-18T03:39:25.460Z,102931.91
2023-05-18T03:40:10.789Z,102941.94
2023-05-18T03:40:42.532Z,102934.91
2023-05-18T03:41:14.396Z,102940.59
2023-05-18T03:41:46.137Z,102937.09
2023-05-18T03:42:17.612Z,102937.38
2023-05-18T03:42:49.361Z,102936.56
2023-05-18T03:43:20.795Z,102943.06
2023-05-18T03:43:52.238Z,102941.47
2023-05-18T03:44:23.654Z,102944.97
2023-05-18T03:44:55.100Z,102941.47
2023-05-18T03:45:26.796Z,102940.66
2023-05-18T03:45:58.545Z,102942.56
2023-05-18T03:46:30.079Z,102942.28
2023-05-18T03:47:01.587Z,102946.88
2023-05-18T03:47:33.691Z,102942.28
2023-05-18T03:48:05.606Z,102940.66
2023-05-18T03:48:37.060Z,102940.66
2023-05-18T03:49:08.583Z,102942.56
2023-05-18T03:49:40.001Z,102939.06
2023-05-18T03:50:11.763Z,102936.63
2023-05-18T03:50:43.803Z,102936.63
2023-05-18T03:51:15.391Z,102946.66
2023-05-18T03:51:46.963Z,102943.13
2023-05-18T03:52:22.226Z,102937.72
2023-05-18T03:52:53.757Z,102940.72
2023-05-18T03:53:26.455Z,102946.44
2023-05-18T03:53:58.018Z,102944.84
2023-05-18T03:54:29.468Z,102941.31
2023-05-18T03:55:01.859Z,102944.03
2023-05-18T03:55:33.587Z,102946.72
2023-05-18T03:56:05.222Z,102944.03
2023-05-18T03:56:36.654Z,102940.22
2023-05-18T03:57:08.073Z,102941.31
2023-05-18T03:57:39.783Z,102935.09
2023-05-18T03:58:11.228Z,102942.41
2023-05-18T03:58:44.562Z,102948.63
2023-05-18T03:59:16.177Z,102947.81
2023-05-18T03:59:47.663Z,102940.81
2023-05-18T04:00:19.987Z,102949.19
2023-05-18T04:00:52.703Z,102940.56
2023-05-18T04:01:24.979Z,102941.38
2023-05-18T04:01:56.456Z,102944.06
2023-05-18T04:02:28.085Z,102939.75
2023-05-18T04:03:00.592Z,102944.38
2023-05-18T04:03:34.788Z,102945.16
2023-05-18T04:04:07.351Z,102946.25
2023-05-18T04:04:46.086Z,102948.16
2023-05-18T04:05:18.106Z,102944.66
2023-05-18T04:05:50.039Z,102957.09
2023-05-18T04:06:23.567Z,102948.97
2023-05-18T04:06:55.033Z,102947.88
2023-05-18T04:07:26.514Z,102945.47
2023-05-18T04:07:58.031Z,102947.88
2023-05-18T04:08:30.207Z,102952.19
2023-05-18T04:09:04.857Z,102948.97
2023-05-18T04:09:36.980Z,102950.06
2023-05-18T04:10:09.194Z,102952.47
2023-05-18T04:10:44.589Z,102946.25
2023-05-18T04:11:16.019Z,102950.56
2023-05-18T04:11:47.663Z,102952.47
2023-05-18T04:12:19.200Z,102951.66
2023-05-18T04:12:50.897Z,102950.88
2023-05-18T04:13:22.401Z,102949.25
2023-05-18T04:13:53.869Z,102951.16
2023-05-18T04:14:28.005Z,102957.38
2023-05-18T04:14:59.834Z,102949.78
2023-05-18T04:15:33.610Z,102954.38
2023-05-18T04:16:05.960Z,102955.47
2023-05-18T04:16:37.688Z,102962.50
2023-05-18T04:17:10.475Z,102957.09
2023-05-18T04:17:45.471Z,102956.00
2023-05-18T04:18:17.376Z,102958.41
2023-05-18T04:18:48.810Z,102962.19
2023-05-18T04:19:21.709Z,102963.81
2023-05-18T04:19:53.252Z,102963.00
2023-05-18T04:20:28.362Z,102961.41
2023-05-18T04:21:00.419Z,102957.59
2023-05-18T04:21:35.400Z,102958.41
2023-05-18T04:22:08.031Z,102963.81
2023-05-18T04:22:43.286Z,102968.41
2023-05-18T04:23:14.760Z,102967.31
2023-05-18T04:23:47.231Z,102963.00
2023-05-18T04:24:19.707Z,102959.22
2023-05-18T04:24:55.014Z,102958.41
2023-05-18T04:25:29.558Z,102957.59
2023-05-18T04:26:01.108Z,102967.31
2023-05-18T04:26:34.660Z,102961.91
2023-05-18T04:27:06.484Z,102967.31
2023-05-18T04:27:38.597Z,102963.53
2023-05-18T04:28:10.099Z,102956.50
2023-05-18T04:28:43.171Z,102960.03
2023-05-18T04:29:15.464Z,102966.22
2023-05-18T04:29:47.583Z,102959.72
2023-05-18T04:30:22.110Z,102960.53
2023-05-18T04:30:54.244Z,102966.47
2023-05-18T04:31:29.567Z,102971.06
2023-05-18T04:32:01.330Z,102968.09
2023-05-18T04:32:36.512Z,102962.66
2023-05-18T04:33:08.482Z,102966.97
2023-05-18T04:33:41.598Z,102968.56
2023-05-18T04:34:13.544Z,102963.16
2023-05-18T04:34:49.452Z,102963.16
2023-05-18T04:35:20.963Z,102962.88
2023-05-18T04:35:58.969Z,102968.00
2023-05-18T04:36:30.909Z,102968.81
2023-05-18T04:37:05.431Z,102968.81
2023-05-18T04:37:40.209Z,102966.91
2023-05-18T04:38:11.769Z,102967.72
2023-05-18T04:38:43.462Z,102970.94
2023-05-18T04:39:14.994Z,102967.13
2023-05-18T04:39:46.601Z,102958.75
2023-05-18T04:40:18.336Z,102959.53
2023-05-18T04:40:50.507Z,102968.97
2023-05-18T04:41:22.187Z,102968.19
2023-05-18T04:41:58.255Z,102968.97
2023-05-18T04:42:29.668Z,102968.97
2023-05-18T04:43:01.252Z,102971.41
2023-05-18T04:43:32.761Z,102967.88
2023-05-18T04:44:04.523Z,102968.41
2023-05-18T04:44:37.498Z,102970.31
2023-05-18T04:45:12.759Z,102961.38
2023-05-18T04:45:46.421Z,102971.91
2023-05-18T04:46:18.129Z,102971.59
2023-05-18T04:46:52.523Z,102976.25
2023-05-18T04:47:24.066Z,102971.59
2023-05-18T04:47:55.770Z,102970.50
2023-05-18T04:48:27.474Z,102967.50
2023-05-18T04:48:58.983Z,102971.03
2023-05-18T04:49:31.975Z,102971.84
2023-05-18T04:50:04.011Z,102977.25
2023-05-18T04:50:37.123Z,102973.44
2023-05-18T04:51:08.733Z,102968.03
2023-05-18T04:51:42.091Z,102972.34
2023-05-18T04:52:13.830Z,102973.97
2023-05-18T04:52:49.799Z,102972.06
2023-05-18T04:53:21.641Z,102976.38
2023-05-18T04:53:53.389Z,102970.69
2023-05-18T04:54:26.433Z,102973.38
2023-05-18T04:54:57.912Z,102972.28
2023-05-18T04:55:31.384Z,102969.59
2023-05-18T04:56:03.083Z,102971.19
2023-05-18T04:56:35.062Z,102973.91
2023-05-18T04:57:07.073Z,102978.75
2023-05-18T04:57:38.476Z,102976.03
2023-05-18T04:58:10.315Z,102976.84
2023-05-18T04:58:45.962Z,102981.16
2023-05-18T04:59:18.036Z,102984.38
2023-05-18T04:59:49.516Z,102979.78
2023-05-18T05:00:21.176Z,102982.97
2023-05-18T05:00:52.928Z,102985.69
2023-05-18T05:01:24.470Z,102984.88
2023-05-18T05:01:56.169Z,102983.78
2023-05-18T05:02:27.697Z,102985.38
2023-05-18T05:02:59.368Z,102989.19
2023-05-18T05:03:31.235Z,102983.50
2023-05-18T05:04:03.855Z,102987.81
2023-05-18T05:04:35.264Z,102984.00
2023-05-18T05:05:07.304Z,102989.13
2023-05-18T05:05:38.760Z,102982.63
2023-05-18T05:06:11.000Z,102986.94
2023-05-18T05:06:42.597Z,102982.34
2023-05-18T05:07:14.055Z,102986.66
2023-05-18T05:07:45.921Z,102985.56
2023-05-18T05:08:17.424Z,102986.38
2023-05-18T05:08:48.946Z,102992.28
2023-05-18T05:09:20.743Z,102990.09
2023-05-18T05:09:52.259Z,102987.91
2023-05-18T05:10:24.324Z,102991.09
2023-05-18T05:10:56.053Z,102993.53
2023-05-18T05:11:27.521Z,102986.72
2023-05-18T05:11:59.832Z,102986.94
2023-05-18T05:12:31.765Z,102986.66
2023-05-18T05:13:03.889Z,102988.81
2023-05-18T05:13:36.148Z,102989.34
2023-05-18T05:14:08.060Z,102983.34
2023-05-18T05:14:39.509Z,102985.72
2023-05-18T05:15:11.269Z,102984.63
2023-05-18T05:15:42.747Z,102983.25
2023-05-18T05:16:14.280Z,102991.06
2023-05-18T05:16:45.752Z,102981.03
2023-05-18T05:17:17.242Z,102990.50
2023-05-18T05:17:49.410Z,102992.91
2023-05-18T05:18:21.522Z,102988.28
2023-05-18T05:18:53.239Z,102984.50
2023-05-18T05:19:25.074Z,102992.03
2023-05-18T05:19:56.772Z,102985.22
2023-05-18T05:20:28.228Z,102987.94
2023-05-18T05:20:59.791Z,102990.84
2023-05-18T05:21:31.908Z,102990.53
2023-05-18T05:22:03.478Z,102981.03
2023-05-18T05:22:35.219Z,102994.00
2023-05-18T05:23:06.994Z,102983.16
2023-05-18T05:23:38.550Z,102986.38
2023-05-18T05:24:10.092Z,102992.31
2023-05-18T05:24:41.691Z,102976.56
2023-05-18T05:25:13.262Z,102977.88
2023-05-18T05:25:44.756Z,102979.16
2023-05-18T05:26:16.538Z,102977.78
2023-05-18T05:26:47.999Z,102975.56
2023-05-18T05:27:19.832Z,102984.22
2023-05-18T05:27:51.345Z,102985.03
2023-05-18T05:28:22.941Z,102980.09
2023-05-18T05:28:54.431Z,102972.78
2023-05-18T05:29:26.816Z,102979.00
2023-05-18T05:29:58.253Z,102974.41
2023-05-18T05:30:29.768Z,102981.44
2023-05-18T05:31:01.239Z,102973.00
2023-05-18T05:31:34.637Z,102980.84
2023-05-18T05:32:06.799Z,102977.03
2023-05-18T05:32:38.418Z,102978.63
2023-05-18T05:33:09.976Z,102981.06
2023-05-18T05:33:41.515Z,102979.13
2023-05-18T05:34:13.585Z,102980.44
2023-05-18T05:34:46.976Z,102990.97
2023-05-18T05:35:18.484Z,102988.78
2023-05-18T05:35:49.960Z,102985.25
2023-05-18T05:36:21.464Z,102985.25
2023-05-18T05:36:52.948Z,102984.16
2023-05-18T05:37:24.453Z,102982.56
2023-05-18T05:37:55.902Z,102987.69
2023-05-18T05:38:27.348Z,102988.47
2023-05-18T05:38:58.761Z,102988.47
2023-05-18T05:39:30.490Z,102982.56
2023-05-18T05:40:01.978Z,102991.78
2023-05-18T05:40:33.401Z,102984.75
2023-05-18T05:41:05.011Z,102984.75
2023-05-18T05:41:36.465Z,102983.66
2023-05-18T05:42:08.720Z,102980.66
2023-05-18T05:42:41.672Z,102986.56
2023-05-18T05:43:13.092Z,102979.75
2023-05-18T05:43:44.773Z,102985.69
2023-05-18T05:44:16.261Z,102987.31
2023-05-18T05:44:47.834Z,102980.78
2023-05-18T05:45:19.321Z,102985.91
2023-05-18T05:45:50.943Z,102981.28
2023-05-18T05:46:22.565Z,102981.28
2023-05-18T05:46:54.145Z,102985.63
2023-05-18T05:47:25.676Z,102980.19
2023-05-18T05:47:57.244Z,102981.00
2023-05-18T05:48:28.714Z,102979.09
2023-05-18T05:49:02.010Z,102983.38
2023-05-18T05:49:34.529Z,102979.28
2023-05-18T05:50:07.022Z,102977.06
2023-05-18T05:50:38.479Z,102977.88
2023-05-18T05:51:09.965Z,102983.59
2023-05-18T05:51:41.351Z,102981.69
2023-05-18T05:52:12.813Z,102989.00
2023-05-18T05:52:44.258Z,102983.59
2023-05-18T05:53:19.531Z,102983.28
2023-05-18T05:53:50.995Z,102980.28
2023-05-18T05:54:22.423Z,102983.50
2023-05-18T05:54:54.117Z,102983.22
2023-05-18T05:55:25.830Z,102982.09
2023-05-18T05:55:57.214Z,102982.09
2023-05-18T05:56:28.655Z,102982.63
2023-05-18T05:57:00.177Z,102981.50
2023-05-18T05:57:31.666Z,102987.75
2023-05-18T05:58:05.280Z,102974.69
2023-05-18T05:58:36.698Z,102982.53
2023-05-18T05:59:08.149Z,102985.25
2023-05-18T05:59:39.540Z,102978.69
2023-05-18T06:00:13.046Z,102980.28
2023-05-18T06:00:47.130Z,102984.63
2023-05-18T06:01:19.261Z,102976.47
2023-05-18T06:01:51.187Z,102983.50
2023-05-18T06:02:22.685Z,102983.50
2023-05-18T06:02:54.317Z,102984.81
2023-05-18T06:03:26.469Z,102982.91
2023-05-18T06:03:58.160Z,102986.44
2023-05-18T06:04:29.947Z,102978.28
2023-05-18T06:05:01.633Z,102988.84
2023-05-18T06:05:33.283Z,102979.09
2023-05-18T06:06:05.107Z,102976.69
2023-05-18T06:06:39.822Z,102980.22
2023-05-18T06:07:11.518Z,102984.53
2023-05-18T06:07:43.261Z,102980.72
2023-05-18T06:08:15.712Z,102986.94
2023-05-18T06:08:47.429Z,102983.13
2023-05-18T06:09:18.896Z,102988.56
2023-05-18T06:09:50.644Z,102983.13
2023-05-18T06:10:22.169Z,102987.75
2023-05-18T06:10:55.001Z,102986.66
2023-05-18T06:11:26.698Z,102981.22
2023-05-18T06:11:58.240Z,102976.59
2023-05-18T06:12:29.886Z,102984.44
2023-05-18T06:13:01.408Z,102984.94
2023-05-18T06:13:32.894Z,102983.53
2023-05-18T06:14:04.589Z,102984.03
2023-05-18T06:14:36.142Z,102982.63
2023-05-18T06:15:08.310Z,102990.16
2023-05-18T06:15:39.793Z,102984.44
2023-05-18T06:16:11.318Z,102984.94
2023-05-18T06:16:42.896Z,102981.41